createdAt,value
2018-08-10T00:00:20.806Z,6.33
2018-08-10T00:02:47.822Z,7.90
2018-08-10T00:05:14.899Z,8.60
2018-08-10T00:07:41.938Z,7.53
2018-08-10T00:10:08.939Z,5.50
2018-08-10T00:12:36.040Z,8.53
2018-08-10T00:15:03.047Z,6.17
2018-08-10T00:17:30.072Z,8.77
2018-08-10T00:19:57.118Z,9.27
2018-08-10T00:22:24.171Z,9.83
2018-08-10T00:24:51.192Z,11.57
2018-08-10T00:27:18.265Z,6.83
2018-08-10T00:29:46.206Z,6.33
2018-08-10T00:32:13.221Z,4.97
2018-08-10T00:34:40.281Z,6.80
2018-08-10T00:37:08.246Z,5.23
2018-08-10T00:39:35.809Z,6.17
2018-08-10T00:42:02.874Z,5.20
2018-08-10T00:44:29.925Z,4.97
2018-08-10T00:46:56.934Z,5.47
2018-08-10T00:52:03.455Z,5.33
2018-08-10T00:54:30.521Z,6.67
2018-08-10T00:56:57.519Z,4.73
2018-08-10T01:01:56.373Z,6.10
2018-08-10T01:04:23.391Z,7.27
2018-08-10T01:06:50.419Z,7.43
2018-08-10T01:09:18.363Z,5.07
2018-08-10T01:11:45.354Z,7.27
2018-08-10T01:14:13.633Z,9.23
2018-08-10T01:16:40.736Z,10.20
2018-08-10T01:19:07.787Z,4.97
2018-08-10T01:21:36.159Z,8.23
2018-08-10T01:24:03.258Z,7.27
2018-08-10T01:26:30.242Z,6.13
2018-08-10T01:28:57.411Z,6.90
2018-08-10T01:31:25.207Z,4.83
2018-08-10T01:33:52.222Z,4.03
2018-08-10T01:36:19.243Z,4.13
2018-08-10T01:38:46.318Z,6.27
2018-08-10T01:41:13.366Z,11.80
2018-08-10T01:43:40.377Z,4.00
2018-08-10T01:46:08.275Z,7.77
2018-08-10T01:48:35.281Z,4.47
2018-08-10T01:51:02.312Z,5.10
2018-08-10T01:53:29.452Z,6.53
2018-08-10T01:55:56.465Z,3.67
2018-08-10T01:58:24.260Z,3.90
2018-08-10T02:00:51.329Z,4.67
2018-08-10T02:05:58.778Z,5.50
2018-08-10T02:08:25.766Z,5.60
2018-08-10T02:10:53.632Z,4.63
2018-08-10T02:13:20.831Z,6.07
2018-08-10T02:15:47.893Z,4.00
2018-08-10T02:20:46.968Z,2.77
2018-08-10T02:23:14.080Z,4.43
2018-08-10T02:25:41.098Z,3.43
2018-08-10T02:28:08.134Z,6.07
2018-08-10T02:30:35.143Z,3.60
2018-08-10T02:33:02.146Z,3.00
2018-08-10T02:35:29.228Z,3.13
2018-08-10T02:37:56.227Z,3.00
2018-08-10T02:40:23.239Z,2.60
2018-08-10T02:42:51.223Z,3.83
2018-08-10T02:45:18.277Z,2.60
2018-08-10T02:47:45.301Z,5.93
2018-08-10T02:50:12.389Z,3.63
2018-08-10T02:52:39.402Z,5.87
2018-08-10T02:55:06.405Z,4.10
2018-08-10T02:57:33.473Z,4.17
2018-08-10T03:00:00.527Z,4.20
2018-08-10T03:02:27.536Z,3.00
2018-08-10T03:04:54.610Z,3.30
2018-08-10T03:07:21.658Z,7.43
2018-08-10T03:09:48.681Z,3.30
2018-08-10T03:12:15.752Z,7.00
2018-08-10T03:14:42.917Z,4.17
2018-08-10T03:19:48.472Z,3.93
2018-08-10T03:22:16.372Z,5.73
2018-08-10T03:24:43.331Z,2.93
2018-08-10T03:27:10.379Z,2.37
2018-08-10T03:29:37.402Z,1.50
2018-08-10T03:32:05.162Z,2.10
2018-08-10T03:34:32.261Z,2.20
2018-08-10T03:36:59.846Z,1.30
2018-08-10T03:39:27.317Z,1.10
2018-08-10T03:41:54.392Z,2.70
2018-08-10T03:44:21.465Z,1.77
2018-08-10T03:46:48.537Z,2.77
2018-08-10T03:49:15.592Z,1.53
2018-08-10T03:51:43.562Z,3.20
2018-08-10T03:54:10.559Z,1.20
2018-08-10T03:56:38.394Z,1.43
2018-08-10T03:59:05.390Z,3.57
2018-08-10T04:01:32.398Z,2.60
2018-08-10T04:03:59.465Z,1.57
2018-08-10T04:06:27.457Z,2.33
2018-08-10T04:08:54.493Z,2.90
2018-08-10T04:11:22.492Z,1.80
2018-08-10T04:13:49.492Z,1.60
2018-08-10T04:16:16.495Z,3.07
2018-08-10T04:18:43.609Z,3.67
2018-08-10T04:21:10.637Z,3.40
2018-08-10T04:23:43.562Z,2.87
2018-08-10T04:26:11.366Z,2.30
2018-08-10T04:28:38.459Z,2.17
2018-08-10T04:31:05.548Z,3.67
2018-08-10T04:36:12.046Z,4.82
2018-08-10T04:38:39.094Z,3.30
2018-08-10T04:41:06.077Z,1.70
2018-08-10T04:43:33.138Z,4.37
2018-08-10T04:46:00.164Z,2.27
2018-08-10T04:48:27.165Z,2.67
2018-08-10T04:50:55.542Z,2.33
2018-08-10T04:53:22.538Z,3.17
2018-08-10T04:55:49.555Z,3.67
2018-08-10T04:58:16.613Z,3.87
2018-08-10T05:00:43.638Z,2.30
2018-08-10T05:03:11.465Z,3.40
2018-08-10T05:05:40.192Z,4.93
2018-08-10T05:08:08.685Z,3.07
2018-08-10T05:10:36.587Z,2.60
2018-08-10T05:13:04.005Z,3.47
2018-08-10T05:15:31.008Z,4.77
2018-08-10T05:17:58.007Z,2.87
2018-08-10T05:20:28.561Z,5.50
2018-08-10T05:22:55.595Z,3.80
2018-08-10T05:25:22.608Z,3.00
2018-08-10T05:27:49.725Z,3.90
2018-08-10T05:30:16.756Z,3.03
2018-08-10T05:32:43.792Z,2.97
2018-08-10T05:35:11.202Z,3.17
2018-08-10T05:37:43.363Z,4.07
2018-08-10T05:45:38.979Z,4.33
2018-08-10T06:04:19.711Z,2.30
2018-08-10T06:06:47.699Z,4.30
2018-08-10T06:09:24.042Z,5.90
2018-08-10T06:11:54.696Z,6.00
2018-08-10T06:14:26.092Z,4.40
2018-08-10T06:16:59.892Z,6.63
2018-08-10T06:19:27.045Z,6.67
2018-08-10T06:24:38.388Z,8.25
2018-08-10T06:27:07.646Z,9.67
2018-08-10T06:32:18.186Z,6.05
2018-08-10T06:34:46.188Z,6.97
2018-08-10T06:37:13.208Z,7.67
2018-08-10T06:39:40.301Z,4.90
2018-08-10T06:42:09.035Z,5.77
2018-08-10T06:44:37.937Z,6.93
2018-08-10T06:49:46.849Z,5.32
2018-08-10T06:52:15.127Z,5.77
2018-08-10T06:54:43.255Z,5.47
2018-08-10T06:57:10.385Z,4.10
2018-08-10T06:59:42.598Z,4.23
2018-08-10T07:02:10.487Z,4.20
2018-08-10T07:04:37.670Z,7.03
2018-08-10T07:07:04.732Z,3.77
2018-08-10T07:09:32.211Z,6.67
2018-08-10T07:11:59.276Z,5.47
2018-08-10T07:14:27.253Z,4.97
2018-08-10T07:16:54.851Z,5.53
2018-08-10T07:19:21.853Z,6.93
2018-08-10T07:21:48.858Z,6.73
2018-08-10T07:24:16.919Z,4.73
2018-08-10T07:26:43.957Z,3.90
2018-08-10T07:29:11.309Z,5.03
2018-08-10T07:31:38.419Z,3.63
2018-08-10T07:34:06.401Z,2.20
2018-08-10T07:36:34.103Z,3.33
2018-08-10T07:39:01.139Z,3.33
2018-08-10T07:41:28.171Z,6.00
2018-08-10T07:43:55.874Z,3.40
2018-08-10T07:46:23.445Z,4.67
2018-08-10T07:48:50.333Z,3.20
2018-08-10T07:53:57.071Z,3.72
2018-08-10T07:56:24.117Z,6.93
2018-08-10T07:58:51.152Z,3.53
2018-08-10T08:01:18.294Z,5.03
2018-08-10T08:03:45.340Z,3.27
2018-08-10T08:06:12.391Z,3.27
2018-08-10T08:08:39.440Z,3.60
2018-08-10T08:13:37.634Z,1.73
2018-08-10T08:16:05.606Z,4.90
2018-08-10T08:18:32.637Z,2.03
2018-08-10T08:20:59.692Z,2.90
2018-08-10T08:23:27.168Z,5.07
2018-08-10T08:25:54.188Z,3.03
2018-08-10T08:28:22.361Z,2.73
2018-08-10T08:30:49.461Z,2.80
2018-08-10T08:33:16.805Z,4.43
2018-08-10T08:35:44.715Z,5.50
2018-08-10T08:38:13.185Z,4.27
2018-08-10T08:40:40.175Z,2.67
2018-08-10T08:43:07.526Z,2.50
2018-08-10T08:45:34.796Z,2.93
2018-08-10T08:48:02.433Z,2.83
2018-08-10T08:50:29.937Z,3.83
2018-08-10T08:55:35.567Z,4.85
2018-08-10T08:58:03.165Z,4.83
2018-08-10T09:00:30.506Z,6.80
2018-08-10T09:02:57.982Z,5.30
2018-08-10T09:05:25.196Z,4.27
2018-08-10T09:07:53.091Z,4.73
2018-08-10T09:10:20.120Z,2.43
2018-08-10T09:12:47.225Z,1.97
2018-08-10T09:15:14.253Z,4.00
2018-08-10T09:17:41.299Z,3.83
2018-08-10T09:20:09.463Z,2.40
2018-08-10T09:22:37.329Z,6.23
2018-08-10T09:25:05.158Z,2.37
2018-08-10T09:27:33.159Z,4.40
2018-08-10T09:30:00.198Z,2.10
2018-08-10T09:32:27.225Z,1.83
2018-08-10T09:34:55.291Z,1.67
2018-08-10T09:37:22.707Z,3.33
2018-08-10T09:39:49.735Z,2.07
2018-08-10T09:42:17.713Z,3.40
2018-08-10T09:44:45.534Z,2.80
2018-08-10T09:47:12.555Z,1.87
2018-08-10T09:49:40.657Z,2.63
2018-08-10T09:52:07.691Z,2.13
2018-08-10T09:57:14.522Z,1.95
2018-08-10T09:59:42.540Z,3.50
2018-08-10T10:02:09.545Z,2.00
2018-08-10T10:04:37.384Z,1.20
2018-08-10T10:07:05.279Z,0.70
2018-08-10T10:09:32.404Z,0.80
2018-08-10T10:12:00.048Z,0.70
2018-08-10T10:14:27.970Z,2.47
2018-08-10T10:16:54.998Z,1.37
2018-08-10T10:19:22.124Z,1.20
2018-08-10T10:21:50.026Z,1.10
2018-08-10T10:24:17.591Z,1.97
2018-08-10T10:26:44.669Z,1.13
2018-08-10T10:29:11.704Z,1.33
2018-08-10T10:31:39.124Z,0.53
2018-08-10T10:34:06.714Z,1.77
2018-08-10T10:36:33.925Z,1.87
2018-08-10T10:39:01.056Z,1.70
2018-08-10T10:41:29.025Z,1.03
2018-08-10T10:46:35.640Z,1.37
2018-08-10T10:49:02.672Z,1.07
2018-08-10T10:51:29.679Z,1.43
2018-08-10T10:53:57.900Z,3.47
2018-08-10T10:56:25.833Z,1.07
2018-08-10T10:58:53.723Z,2.00
2018-08-10T11:01:23.302Z,0.80
2018-08-10T11:03:52.080Z,2.03
2018-08-10T11:08:58.284Z,0.90
2018-08-10T11:11:25.535Z,0.60
2018-08-10T11:13:57.706Z,0.70
2018-08-10T11:16:25.356Z,0.63
2018-08-10T11:18:52.390Z,0.70
2018-08-10T11:24:00.375Z,2.25
2018-08-10T11:26:29.488Z,0.73
2018-08-10T11:28:57.510Z,1.07
2018-08-10T11:31:25.485Z,1.93
2018-08-10T11:33:53.821Z,0.40
2018-08-10T11:36:21.202Z,0.47
2018-08-10T11:38:48.308Z,0.67
2018-08-10T11:41:15.374Z,0.50
2018-08-10T11:43:45.548Z,1.13
2018-08-10T11:46:19.001Z,0.83
2018-08-10T11:51:33.744Z,2.20
2018-08-10T11:54:07.627Z,0.57
2018-08-10T11:56:42.181Z,1.03
2018-08-10T11:59:15.330Z,0.57
2018-08-10T12:01:42.451Z,0.57
2018-08-10T12:04:09.545Z,1.30
2018-08-10T12:06:38.846Z,2.00
2018-08-10T12:09:07.244Z,0.50
2018-08-10T12:14:16.713Z,4.20
2018-08-10T12:16:43.732Z,2.03
2018-08-10T12:19:10.831Z,0.30
2018-08-10T12:21:38.870Z,3.13
2018-08-10T12:24:05.943Z,0.63
2018-08-10T12:26:33.935Z,0.37
2018-08-10T12:29:01.056Z,0.67
2018-08-10T12:31:28.680Z,1.10
2018-08-10T12:33:56.666Z,0.33
2018-08-10T12:36:24.507Z,2.33
2018-08-10T12:38:52.292Z,1.07
2018-08-10T12:41:20.364Z,2.60
2018-08-10T12:43:47.522Z,0.70
2018-08-10T12:46:16.355Z,0.60
2018-08-10T12:48:43.384Z,1.43
2018-08-10T12:51:12.571Z,0.97
2018-08-10T12:53:43.903Z,0.90
2018-08-10T12:56:11.875Z,2.23
2018-08-10T12:58:39.421Z,1.63
2018-08-10T13:01:06.465Z,1.43
2018-08-10T13:03:33.722Z,3.87
2018-08-10T13:08:41.430Z,1.23
2018-08-10T13:11:09.456Z,1.33
2018-08-10T13:13:38.469Z,2.57
2018-08-10T13:16:05.580Z,1.27
2018-08-10T13:18:33.232Z,1.30
2018-08-10T13:21:00.324Z,1.13
2018-08-10T13:23:27.429Z,1.37
2018-08-10T13:25:55.301Z,1.10
2018-08-10T13:28:22.340Z,2.00
2018-08-10T13:30:49.404Z,2.73
2018-08-10T13:33:16.442Z,3.33
2018-08-10T13:35:43.461Z,2.00
2018-08-10T13:38:10.544Z,1.83
2018-08-10T13:40:37.574Z,3.43
2018-08-10T13:43:04.613Z,1.03
2018-08-10T13:45:31.727Z,1.60
2018-08-10T13:47:58.861Z,1.17
2018-08-10T13:50:25.908Z,1.23
2018-08-10T13:52:53.030Z,1.27
2018-08-10T13:55:20.067Z,1.53
2018-08-10T13:57:48.803Z,1.63
2018-08-10T14:00:15.904Z,1.20
2018-08-10T14:05:23.412Z,3.40
2018-08-10T14:07:51.303Z,5.40
2018-08-10T14:10:18.944Z,1.47
2018-08-10T14:12:48.046Z,0.90
2018-08-10T14:15:15.080Z,1.00
2018-08-10T14:17:44.508Z,1.37
2018-08-10T14:20:13.442Z,2.00
2018-08-10T14:28:13.658Z,1.42
2018-08-10T14:30:41.112Z,1.40
2018-08-10T14:33:09.550Z,1.73
2018-08-10T14:35:37.151Z,1.57
2018-08-10T14:40:45.069Z,1.60
2018-08-10T14:43:12.983Z,1.50
2018-08-10T14:45:41.497Z,1.57
2018-08-10T14:50:48.847Z,2.37
2018-08-10T14:53:16.179Z,1.57
2018-08-10T14:55:43.337Z,1.40
2018-08-10T14:58:11.065Z,1.60
2018-08-10T15:00:39.099Z,2.03
2018-08-10T15:03:07.070Z,4.90
2018-08-10T15:05:34.183Z,4.40
2018-08-10T15:10:46.366Z,2.30
2018-08-10T15:13:13.403Z,2.10
2018-08-10T15:15:43.275Z,1.50
2018-08-10T15:18:10.627Z,3.70
2018-08-10T15:20:39.025Z,1.73
2018-08-10T15:23:06.162Z,1.97
2018-08-10T15:25:33.808Z,5.23
2018-08-10T15:28:00.934Z,2.67
2018-08-10T15:30:28.648Z,3.50
2018-08-10T15:32:56.370Z,2.57
2018-08-10T15:35:23.513Z,2.73
2018-08-10T15:37:50.639Z,3.20
2018-08-10T15:40:18.797Z,2.10
2018-08-10T15:42:45.916Z,2.63
2018-08-10T15:45:12.956Z,2.37
2018-08-10T15:47:40.946Z,2.37
2018-08-10T15:50:08.957Z,2.93
2018-08-10T15:52:36.027Z,3.30
2018-08-10T15:55:03.098Z,3.57
2018-08-10T15:57:31.053Z,3.60
2018-08-10T15:59:58.156Z,3.57
2018-08-10T16:02:25.259Z,4.13
2018-08-10T16:04:52.325Z,3.57
2018-08-10T16:07:19.350Z,3.80
2018-08-10T16:09:46.454Z,6.47
2018-08-10T16:12:14.293Z,3.27
2018-08-10T16:14:41.373Z,3.77
2018-08-10T16:17:09.579Z,4.40
2018-08-10T16:19:36.546Z,3.23
2018-08-10T16:22:03.601Z,6.47
2018-08-10T16:24:30.656Z,2.40
2018-08-10T16:26:58.655Z,2.23
2018-08-10T16:34:46.849Z,2.50
2018-08-10T16:37:13.920Z,5.07
2018-08-10T16:39:41.086Z,2.13
2018-08-10T16:42:08.192Z,1.90
2018-08-10T16:44:36.298Z,1.80
2018-08-10T16:47:03.268Z,2.53
2018-08-10T16:49:30.747Z,2.13
2018-08-10T16:51:58.399Z,2.80
2018-08-10T16:54:27.446Z,1.10
2018-08-10T16:56:55.036Z,1.60
2018-08-10T16:59:22.256Z,1.50
2018-08-10T17:01:50.254Z,1.50
2018-08-10T17:04:17.579Z,2.30
2018-08-10T17:06:44.728Z,2.47
2018-08-10T17:09:11.760Z,1.73
2018-08-10T17:11:39.974Z,1.50
2018-08-10T17:14:07.053Z,2.40
2018-08-10T17:16:34.133Z,3.40
2018-08-10T17:19:01.195Z,3.47
2018-08-10T17:21:28.316Z,2.00
2018-08-10T17:23:57.003Z,1.53
2018-08-10T17:26:30.130Z,2.37
2018-08-10T17:28:57.175Z,2.03
2018-08-10T17:31:25.345Z,2.27
2018-08-10T17:36:39.058Z,2.70
2018-08-10T17:39:06.200Z,1.93
2018-08-10T17:41:37.079Z,2.30
2018-08-10T17:44:06.392Z,3.50
2018-08-10T17:46:39.967Z,4.00
2018-08-10T17:49:14.445Z,2.87
2018-08-10T17:54:16.383Z,2.00
2018-08-10T17:59:32.687Z,2.10
2018-08-10T18:01:59.789Z,3.53
2018-08-10T18:04:26.960Z,2.40
2018-08-10T18:06:54.055Z,1.77
2018-08-10T18:09:21.176Z,2.03
2018-08-10T18:11:48.773Z,1.60
2018-08-10T18:14:15.868Z,3.27
2018-08-10T18:16:49.597Z,3.17
2018-08-10T18:19:18.139Z,2.03
2018-08-10T18:21:45.158Z,2.00
2018-08-10T18:24:13.015Z,2.23
2018-08-10T18:26:40.754Z,2.40
2018-08-10T18:29:07.771Z,4.83
2018-08-10T18:31:34.789Z,2.63
2018-08-10T18:34:02.726Z,4.43
2018-08-10T18:36:30.619Z,2.67
2018-08-10T18:38:57.639Z,5.97
2018-08-10T18:41:24.732Z,2.73
2018-08-10T18:43:51.824Z,3.57
2018-08-10T18:46:18.834Z,3.90
2018-08-10T18:48:45.925Z,4.93
2018-08-10T18:53:53.466Z,3.80
2018-08-10T18:56:20.593Z,3.10
2018-08-10T18:58:48.584Z,3.50
2018-08-10T19:01:18.137Z,2.83
2018-08-10T19:03:46.214Z,4.70
2018-08-10T19:06:13.269Z,2.57
2018-08-10T19:08:40.380Z,5.63
2018-08-10T19:11:07.429Z,2.63
2018-08-10T19:13:35.376Z,4.40
2018-08-10T19:16:02.525Z,2.33
2018-08-10T19:18:29.572Z,3.07
2018-08-10T19:20:56.645Z,3.87
2018-08-10T19:23:23.767Z,3.27
2018-08-10T19:25:50.805Z,4.10
2018-08-10T19:28:20.968Z,3.83
2018-08-10T19:30:46.705Z,3.00
2018-08-10T19:33:13.759Z,4.70
2018-08-10T19:35:40.866Z,3.37
2018-08-10T19:38:07.989Z,3.33
2018-08-10T19:40:35.123Z,3.00
2018-08-10T19:43:02.393Z,3.60
2018-08-10T19:45:29.503Z,3.30
2018-08-10T19:47:56.650Z,3.43
2018-08-10T19:50:23.707Z,2.90
2018-08-10T19:52:50.820Z,4.03
2018-08-10T19:55:17.876Z,5.03
2018-08-10T19:57:45.768Z,4.23
2018-08-10T20:00:13.276Z,4.03
2018-08-10T20:02:40.343Z,4.40
2018-08-10T20:07:45.018Z,4.40
2018-08-10T20:10:12.069Z,4.47
2018-08-10T20:12:40.477Z,4.27
2018-08-10T20:15:06.358Z,4.47
2018-08-10T20:17:33.903Z,4.37
2018-08-10T20:20:01.046Z,5.80
2018-08-10T20:22:28.166Z,4.10
2018-08-10T20:24:55.462Z,3.30
2018-08-10T20:27:22.522Z,4.60
2018-08-10T20:29:49.663Z,4.13
2018-08-10T20:32:17.276Z,4.70
2018-08-10T20:34:44.302Z,4.20
2018-08-10T20:37:11.411Z,4.90
2018-08-10T20:39:38.464Z,7.47
2018-08-10T20:44:46.335Z,5.82
2018-08-10T20:47:13.399Z,4.40
2018-08-10T20:49:40.427Z,4.43
2018-08-10T20:52:07.566Z,4.80
2018-08-10T20:57:13.157Z,5.60
2018-08-10T20:59:40.500Z,3.87
2018-08-10T21:02:07.550Z,5.37
2018-08-10T21:04:35.163Z,5.53
2018-08-10T21:07:02.309Z,4.60
2018-08-10T21:09:29.356Z,4.60
2018-08-10T21:11:56.443Z,5.83
2018-08-10T21:14:23.494Z,7.53
2018-08-10T21:16:50.535Z,4.70
2018-08-10T21:19:17.660Z,4.67
2018-08-10T21:21:44.687Z,4.87
2018-08-10T21:24:12.799Z,4.50
2018-08-10T21:26:40.684Z,4.33
2018-08-10T21:29:20.405Z,4.90
2018-08-10T21:31:47.469Z,4.83
2018-08-10T21:34:14.536Z,5.60
2018-08-10T21:36:41.594Z,5.77
2018-08-10T21:39:08.707Z,5.83
2018-08-10T21:41:36.183Z,5.10
2018-08-10T21:44:03.212Z,5.90
2018-08-10T21:46:30.334Z,7.70
2018-08-10T21:48:57.369Z,6.77
2018-08-10T21:51:24.505Z,6.50
2018-08-10T21:53:51.699Z,6.40
2018-08-10T21:56:18.737Z,6.10
2018-08-10T21:58:45.797Z,5.80
2018-08-10T22:01:13.743Z,5.97
2018-08-10T22:03:40.796Z,5.47
2018-08-10T22:06:07.817Z,6.73
2018-08-10T22:08:34.918Z,6.37
2018-08-10T22:11:01.966Z,5.83
2018-08-10T22:13:30.326Z,5.63
2018-08-10T22:18:38.628Z,6.70
2018-08-10T22:21:05.642Z,6.13
2018-08-10T22:23:32.786Z,5.23
2018-08-10T22:25:59.919Z,5.70
2018-08-10T22:28:27.029Z,6.17
2018-08-10T22:30:56.333Z,6.33
2018-08-10T22:35:57.365Z,5.27
2018-08-10T22:38:25.341Z,5.43
2018-08-10T22:40:52.387Z,5.10
2018-08-10T22:43:19.513Z,5.80
2018-08-10T22:45:46.663Z,4.93
2018-08-10T22:48:13.706Z,6.07
2018-08-10T22:50:41.306Z,5.23
2018-08-10T22:53:08.356Z,5.57
2018-08-10T22:55:35.415Z,4.57
2018-08-10T22:58:02.529Z,4.30
2018-08-10T23:00:29.575Z,4.50
2018-08-10T23:02:57.547Z,5.03
2018-08-10T23:05:24.641Z,7.00
2018-08-10T23:07:52.384Z,3.77
2018-08-10T23:10:19.881Z,5.20
2018-08-10T23:12:46.981Z,3.87
2018-08-10T23:15:14.034Z,4.37
2018-08-10T23:17:41.071Z,4.63
2018-08-10T23:20:08.355Z,3.47
2018-08-10T23:22:35.313Z,4.30
2018-08-10T23:25:03.373Z,5.00
2018-08-10T23:27:30.470Z,5.17
2018-08-10T23:29:57.514Z,4.33
2018-08-10T23:35:03.828Z,7.10
2018-08-10T23:37:31.768Z,6.20
2018-08-10T23:39:58.798Z,6.17
2018-08-10T23:42:26.772Z,7.73
2018-08-10T23:44:53.912Z,6.33
2018-08-10T23:47:20.949Z,4.93
2018-08-10T23:49:48.065Z,12.03
2018-08-10T23:52:15.082Z,8.60
2018-08-10T23:54:42.122Z,7.77
2018-08-10T23:57:09.981Z,4.20
2018-08-10T23:59:37.016Z,4.53
